createdAt,value
2022-08-09T00:02:27.638Z,98807.28
2022-08-09T00:05:03.711Z,98807.22
2022-08-09T00:07:44.569Z,98802.31
2022-08-09T00:10:21.263Z,98803.09
2022-08-09T00:12:52.643Z,98804.38
2022-08-09T00:15:19.483Z,98805.94
2022-08-09T00:18:05.623Z,98805.38
2022-08-09T00:20:34.111Z,98795.59
2022-08-09T00:23:07.844Z,98805.44
2022-08-09T00:25:51.667Z,98807.81
2022-08-09T00:28:18.295Z,98808.31
2022-08-09T00:30:46.042Z,98808.00
2022-08-09T00:33:13.687Z,98811.44
2022-08-09T00:35:43.079Z,98806.53
2022-08-09T00:38:10.863Z,98810.53
2022-08-09T00:40:39.057Z,98806.97
2022-08-09T00:44:14.659Z,98804.22
2022-08-09T00:46:05.943Z,98806.56
2022-08-09T00:48:33.550Z,98807.06
2022-08-09T00:51:03.629Z,98804.06
2022-08-09T00:53:39.080Z,98807.22
2022-08-09T00:56:09.751Z,98808.53
2022-08-09T00:58:37.463Z,98804.69
2022-08-09T01:01:04.368Z,98810.31
2022-08-09T01:03:30.747Z,98809.16
2022-08-09T01:08:49.596Z,98816.31
2022-08-09T01:11:17.818Z,98807.94
2022-08-09T01:13:59.001Z,98810.28
2022-08-09T01:16:28.012Z,98818.03
2022-08-09T01:19:04.455Z,98821.97
2022-08-09T01:21:40.978Z,98813.34
2022-08-09T01:24:11.400Z,98815.72
2022-08-09T01:26:41.033Z,98818.06
2022-08-09T01:29:07.395Z,98821.00
2022-08-09T01:32:29.202Z,98820.41
2022-08-09T01:34:20.194Z,98815.53
2022-08-09T01:36:46.716Z,98825.13
2022-08-09T01:39:14.704Z,98820.25
2022-08-09T01:41:53.707Z,98816.16
2022-08-09T01:44:27.717Z,98827.13
2022-08-09T01:46:54.023Z,98826.56
2022-08-09T01:49:24.081Z,98824.34
2022-08-09T01:51:53.978Z,98822.75
2022-08-09T01:54:21.964Z,98830.22
2022-08-09T01:56:51.430Z,98827.78
2022-08-09T01:59:18.225Z,98830.69
2022-08-09T02:01:58.094Z,98820.19
2022-08-09T02:04:28.036Z,98834.91
2022-08-09T02:06:58.974Z,98823.03
2022-08-09T02:09:42.084Z,98824.09
2022-08-09T02:12:09.012Z,98826.19
2022-08-09T02:14:35.552Z,98830.16
2022-08-09T02:17:59.136Z,98831.44
2022-08-09T02:19:48.525Z,98827.63
2022-08-09T02:22:15.893Z,98829.47
2022-08-09T02:24:43.096Z,98831.59
2022-08-09T02:27:13.291Z,98835.56
2022-08-09T02:29:45.086Z,98833.31
2022-08-09T02:32:15.604Z,98834.59
2022-08-09T02:34:51.779Z,98825.19
2022-08-09T02:37:31.665Z,98832.06
2022-08-09T02:40:01.587Z,98831.50
2022-08-09T02:42:28.280Z,98830.13
2022-08-09T02:44:55.116Z,98827.88
2022-08-09T02:47:22.705Z,98831.88
2022-08-09T02:49:55.296Z,98832.09
2022-08-09T02:52:29.506Z,98829.09
2022-08-09T02:54:57.362Z,98831.41
2022-08-09T02:57:25.015Z,98830.84
2022-08-09T03:00:11.460Z,98834.78
2022-08-09T03:02:39.095Z,98834.22
2022-08-09T03:05:25.939Z,98835.75
2022-08-09T03:07:55.047Z,98835.97
2022-08-09T03:10:21.896Z,98839.94
2022-08-09T03:12:51.982Z,98843.09
2022-08-09T03:15:19.602Z,98840.84
2022-08-09T03:17:46.362Z,98835.97
2022-08-09T03:20:24.806Z,98835.41
2022-08-09T03:22:56.819Z,98836.69
2022-08-09T03:25:26.487Z,98839.59
2022-08-09T03:28:11.227Z,98841.69
2022-08-09T03:30:39.808Z,98851.81
2022-08-09T03:33:13.066Z,98848.56
2022-08-09T03:36:13.805Z,98852.50
2022-08-09T03:38:32.181Z,98855.41
2022-08-09T03:40:58.596Z,98860.19
2022-08-09T03:43:24.980Z,98856.13
2022-08-09T03:46:04.969Z,98858.22
2022-08-09T03:48:51.366Z,98859.50
2022-08-09T03:51:43.632Z,98866.97
2022-08-09T03:54:06.465Z,98865.75
2022-08-09T03:56:37.758Z,98862.50
2022-08-09T03:59:07.531Z,98861.09
2022-08-09T04:01:40.556Z,98861.31
2022-08-09T04:04:09.934Z,98865.03
2022-08-09T04:06:40.867Z,98863.44
2022-08-09T04:09:47.758Z,98867.38
2022-08-09T04:12:06.626Z,98866.78
2022-08-09T04:15:00.674Z,98870.75
2022-08-09T04:17:25.431Z,98866.41
2022-08-09T04:19:56.175Z,98862.72
2022-08-09T04:22:22.858Z,98870.16
2022-08-09T04:24:49.853Z,98874.91
2022-08-09T04:27:21.900Z,98878.19
2022-08-09T04:29:50.398Z,98882.47
2022-08-09T04:32:31.394Z,98885.28
2022-08-09T04:35:01.355Z,98882.94
2022-08-09T04:37:45.617Z,98888.44
2022-08-09T04:40:12.485Z,98893.72
2022-08-09T04:42:46.020Z,98888.50
2022-08-09T04:45:14.977Z,98892.91
2022-08-09T04:47:59.409Z,98896.28
2022-08-09T04:50:35.076Z,98897.22
2022-08-09T04:53:04.754Z,98894.41
2022-08-09T04:55:38.934Z,98893.50
2022-08-09T04:58:18.625Z,98892.53
2022-08-09T05:00:47.369Z,98902.34
2022-08-09T05:03:39.899Z,98905.72
2022-08-09T05:06:07.016Z,98913.63
2022-08-09T05:08:34.619Z,98907.09
2022-08-09T05:11:01.303Z,98909.41
2022-08-09T05:13:28.932Z,98913.38
2022-08-09T05:15:59.348Z,98920.84
2022-08-09T05:18:37.905Z,98923.94
2022-08-09T05:21:22.777Z,98920.66
2022-08-09T05:23:57.735Z,98918.72
2022-08-09T05:26:36.229Z,98931.06
2022-08-09T05:29:04.039Z,98928.34
2022-08-09T05:31:45.035Z,98924.81
2022-08-09T05:34:17.951Z,98936.28
2022-08-09T05:36:44.272Z,98936.25
2022-08-09T05:39:13.792Z,98937.22
2022-08-09T05:41:55.138Z,98932.34
2022-08-09T05:44:22.295Z,98932.00
2022-08-09T05:46:55.632Z,98939.53
2022-08-09T05:50:19.579Z,98940.00
2022-08-09T05:52:09.900Z,98936.22
2022-08-09T05:54:36.742Z,98943.75
2022-08-09T05:57:06.338Z,98939.72
2022-08-09T05:59:32.901Z,98945.59
2022-08-09T06:02:00.461Z,98942.84
2022-08-09T06:04:34.931Z,98945.19
2022-08-09T06:07:01.571Z,98935.63
2022-08-09T06:09:55.106Z,98937.44
2022-08-09T06:12:14.702Z,98933.31
2022-08-09T06:14:40.969Z,98933.97
2022-08-09T06:17:10.750Z,98938.41
2022-08-09T06:19:37.194Z,98943.69
2022-08-09T06:22:04.107Z,98944.03
2022-08-09T06:24:30.975Z,98943.56
2022-08-09T06:26:57.748Z,98944.16
2022-08-09T06:29:24.814Z,98940.16
2022-08-09T06:32:09.351Z,98948.09
2022-08-09T06:34:40.219Z,98943.81
2022-08-09T06:37:08.097Z,98944.41
2022-08-09T06:39:49.221Z,98948.19
2022-08-09T06:42:24.961Z,98939.56
2022-08-09T06:44:58.715Z,98941.47
2022-08-09T06:47:39.541Z,98941.25
2022-08-09T06:50:14.076Z,98934.53
2022-08-09T06:52:46.803Z,98939.38
2022-08-09T06:55:13.696Z,98939.63
2022-08-09T06:58:01.464Z,98941.53
2022-08-09T07:00:48.645Z,98940.75
2022-08-09T07:03:15.126Z,98936.13
2022-08-09T07:05:53.757Z,98948.50
2022-08-09T07:08:30.556Z,98940.09
2022-08-09T07:10:59.937Z,98951.44
2022-08-09T07:13:30.433Z,98947.84
2022-08-09T07:16:41.487Z,98944.81
2022-08-09T07:18:47.355Z,98942.81
2022-08-09T07:21:14.054Z,98941.13
2022-08-09T07:23:56.350Z,98948.66
2022-08-09T07:26:24.174Z,98944.19
2022-08-09T07:29:08.917Z,98940.84
2022-08-09T07:31:38.403Z,98941.25
2022-08-09T07:34:05.083Z,98940.06
2022-08-09T07:36:33.034Z,98934.75
2022-08-09T07:39:00.856Z,98931.69
2022-08-09T07:41:32.942Z,98932.63
2022-08-09T07:43:59.420Z,98928.94
2022-08-09T07:46:29.608Z,98925.53
2022-08-09T07:48:59.309Z,98931.88
2022-08-09T07:52:05.814Z,98936.56
2022-08-09T07:54:14.176Z,98937.44
2022-08-09T07:56:48.937Z,98949.94
2022-08-09T07:59:34.616Z,98964.03
2022-08-09T08:02:02.773Z,98972.38
2022-08-09T08:04:32.146Z,98970.53
2022-08-09T08:07:00.082Z,98975.44
2022-08-09T08:09:41.250Z,98984.06
2022-08-09T08:12:28.131Z,98996.72
2022-08-09T08:14:56.138Z,99012.38
2022-08-09T08:17:52.967Z,99011.69
2022-08-09T08:20:13.564Z,99013.91
2022-08-09T08:22:40.187Z,99025.03
2022-08-09T08:25:09.496Z,99031.44
2022-08-09T08:27:43.396Z,99029.19
2022-08-09T08:30:11.151Z,99035.44
2022-08-09T08:32:41.594Z,99041.31
2022-08-09T08:35:19.363Z,99041.94
2022-08-09T08:38:04.494Z,99041.25
2022-08-09T08:40:35.239Z,99028.47
2022-08-09T08:43:13.140Z,99019.53
2022-08-09T08:45:43.204Z,99017.16
2022-08-09T08:48:19.521Z,99012.97
2022-08-09T08:50:49.404Z,98977.09
2022-08-09T08:53:21.676Z,98957.13
2022-08-09T08:55:48.453Z,98947.47
2022-08-09T08:58:14.722Z,98923.66
2022-08-09T09:00:43.306Z,98914.09
2022-08-09T09:03:21.209Z,98886.84
2022-08-09T09:06:00.651Z,98874.47
2022-08-09T09:08:31.873Z,98864.09
2022-08-09T09:10:58.572Z,98870.06
2022-08-09T09:13:24.894Z,98868.03
2022-08-09T09:16:08.631Z,98867.25
2022-08-09T09:18:36.182Z,98867.13
2022-08-09T09:21:02.412Z,98880.19
2022-08-09T09:23:37.832Z,98878.91
2022-08-09T09:26:11.966Z,98889.25
2022-08-09T09:29:03.508Z,98878.69
2022-08-09T09:32:03.350Z,98887.44
2022-08-09T09:34:11.652Z,98891.53
2022-08-09T09:36:46.998Z,98887.00
2022-08-09T09:39:21.095Z,98886.75
2022-08-09T09:41:49.259Z,98886.22
2022-08-09T09:44:16.308Z,98882.69
2022-08-09T09:46:52.787Z,98889.22
2022-08-09T09:49:19.141Z,98895.44
2022-08-09T09:51:58.721Z,98891.13
2022-08-09T09:54:27.421Z,98879.16
2022-08-09T09:58:04.023Z,98896.25
2022-08-09T09:59:45.242Z,98887.59
2022-08-09T10:02:18.613Z,98889.00
2022-08-09T10:04:46.973Z,98888.50
2022-08-09T10:07:13.439Z,98889.88
2022-08-09T10:09:45.876Z,98886.63
2022-08-09T10:12:28.481Z,98897.22
2022-08-09T10:14:58.550Z,98892.88
2022-08-09T10:17:50.829Z,98899.13
2022-08-09T10:20:15.289Z,98898.31
2022-08-09T10:22:43.859Z,98894.00
2022-08-09T10:25:13.953Z,98895.06
2022-08-09T10:27:56.089Z,98884.00
2022-08-09T10:34:08.940Z,98874.31
2022-08-09T10:36:00.953Z,98880.53
2022-08-09T10:38:54.405Z,98893.03
2022-08-09T10:41:16.950Z,98884.88
2022-08-09T10:43:46.928Z,98874.94
2022-08-09T10:46:21.063Z,98887.28
2022-08-09T10:48:52.778Z,98885.41
2022-08-09T10:51:19.090Z,98890.00
2022-08-09T10:53:54.481Z,98891.63
2022-08-09T10:56:23.021Z,98903.28
2022-08-09T10:58:51.309Z,98910.38
2022-08-09T11:03:15.932Z,98907.34
2022-08-09T11:04:06.983Z,98912.50
2022-08-09T11:06:48.732Z,98913.31
2022-08-09T11:09:16.468Z,98906.47
2022-08-09T11:11:43.949Z,98904.56
2022-08-09T11:14:19.849Z,98905.94
2022-08-09T11:16:55.025Z,98909.84
2022-08-09T11:19:23.082Z,98914.38
2022-08-09T11:22:18.633Z,98901.63
2022-08-09T11:24:52.203Z,98914.09
2022-08-09T11:27:18.952Z,98910.38
2022-08-09T11:30:32.322Z,98900.81
2022-08-09T11:32:52.171Z,98897.50
2022-08-09T11:35:26.362Z,98900.22
2022-08-09T11:38:01.694Z,98899.94
2022-08-09T11:40:28.251Z,98895.31
2022-08-09T11:42:55.974Z,98896.63
2022-08-09T11:45:22.401Z,98886.63
2022-08-09T11:47:48.981Z,98891.06
2022-08-09T11:50:56.350Z,98884.34
2022-08-09T11:53:21.376Z,98887.16
2022-08-09T11:55:52.385Z,98893.41
2022-08-09T11:58:30.408Z,98895.06
2022-08-09T12:00:59.559Z,98886.41
2022-08-09T12:03:54.839Z,98889.41
2022-08-09T12:06:13.188Z,98883.69
2022-08-09T12:08:41.930Z,98877.66
2022-08-09T12:11:12.570Z,98878.78
2022-08-09T12:14:09.153Z,98882.59
2022-08-09T12:16:30.270Z,98880.44
2022-08-09T12:19:03.850Z,98871.75
2022-08-09T12:21:38.660Z,98871.44
2022-08-09T12:24:08.594Z,98868.44
2022-08-09T12:26:36.395Z,98864.59
2022-08-09T12:29:29.804Z,98865.41
2022-08-09T12:31:58.418Z,98870.63
2022-08-09T12:34:30.672Z,98858.44
2022-08-09T12:36:58.894Z,98866.88
2022-08-09T12:39:37.684Z,98866.34
2022-08-09T12:42:05.107Z,98866.34
2022-08-09T12:44:37.409Z,98861.97
2022-08-09T12:47:07.032Z,98868.22
2022-08-09T12:49:35.179Z,98862.19
2022-08-09T12:52:03.615Z,98862.19
2022-08-09T12:54:30.988Z,98854.84
2022-08-09T12:56:57.557Z,98847.53
2022-08-09T12:59:23.985Z,98848.31
2022-08-09T13:01:50.444Z,98849.94
2022-08-09T13:04:38.027Z,98848.00
2022-08-09T13:07:03.372Z,98848.31
2022-08-09T13:09:30.526Z,98845.88
2022-08-09T13:12:02.037Z,98846.72
2022-08-09T13:14:41.065Z,98838.34
2022-08-09T13:17:12.776Z,98847.34
2022-08-09T13:20:10.038Z,98848.16
2022-08-09T13:22:35.666Z,98850.00
2022-08-09T13:25:07.487Z,98838.84
2022-08-09T13:27:39.434Z,98845.88
2022-08-09T13:30:50.372Z,98835.84
2022-08-09T13:33:01.380Z,98840.47
2022-08-09T13:35:34.599Z,98838.25
2022-08-09T13:38:32.962Z,98827.69
2022-08-09T13:41:51.429Z,98833.44
2022-08-09T13:43:48.947Z,98832.59
2022-08-09T13:47:16.691Z,98830.19
2022-08-09T13:49:05.212Z,98838.63
2022-08-09T13:51:32.140Z,98828.84
2022-08-09T13:53:58.507Z,98835.41
2022-08-09T13:56:25.561Z,98828.34
2022-08-09T13:58:52.012Z,98833.53
2022-08-09T14:02:00.797Z,98822.47
2022-08-09T14:04:11.292Z,98826.28
2022-08-09T14:06:41.357Z,98819.53
2022-08-09T14:09:12.796Z,98819.28
2022-08-09T14:11:47.120Z,98814.16
2022-08-09T14:14:25.611Z,98824.22
2022-08-09T14:16:53.727Z,98811.72
2022-08-09T14:19:20.638Z,98810.09
2022-08-09T14:21:47.842Z,98810.88
2022-08-09T14:24:22.482Z,98816.31
2022-08-09T14:26:59.359Z,98808.47
2022-08-09T14:30:35.576Z,98807.47
2022-08-09T14:32:16.185Z,98805.03
2022-08-09T14:34:44.144Z,98809.13
2022-08-09T14:37:11.457Z,98807.78
2022-08-09T14:39:47.173Z,98803.19
2022-08-09T14:42:30.503Z,98793.97
2022-08-09T14:45:00.545Z,98792.31
2022-08-09T14:47:44.774Z,98794.22
2022-08-09T14:50:13.107Z,98800.47
2022-08-09T14:52:42.710Z,98801.28
2022-08-09T14:55:09.538Z,98805.59
2022-08-09T14:57:43.613Z,98797.75
2022-08-09T15:00:10.107Z,98803.19
2022-08-09T15:02:37.675Z,98796.94
2022-08-09T15:05:05.780Z,98805.38
2022-08-09T15:07:35.526Z,98805.38
2022-08-09T15:10:07.504Z,98808.09
2022-08-09T15:12:37.766Z,98807.56
2022-08-09T15:15:04.075Z,98809.19
2022-08-09T15:17:42.078Z,98805.97
2022-08-09T15:20:11.791Z,98806.78
2022-08-09T15:22:47.089Z,98808.16
2022-08-09T15:25:14.281Z,98803.84
2022-08-09T15:27:47.922Z,98799.50
2022-08-09T15:30:48.740Z,98808.75
2022-08-09T15:33:15.180Z,98807.41
2022-08-09T15:36:02.028Z,98804.19
2022-08-09T15:38:32.617Z,98801.47
2022-08-09T15:40:59.319Z,98792.00
2022-08-09T15:43:36.859Z,98797.72
2022-08-09T15:46:28.302Z,98798.03
2022-08-09T15:49:20.753Z,98793.69
2022-08-09T15:51:44.707Z,98793.16
2022-08-09T15:54:33.525Z,98795.38
2022-08-09T15:57:09.552Z,98786.72
2022-08-09T15:59:36.924Z,98792.16
2022-08-09T16:02:05.615Z,98790.50
2022-08-09T16:04:35.328Z,98791.63
2022-08-09T16:07:03.472Z,98777.53
2022-08-09T16:09:32.287Z,98779.72
2022-08-09T16:12:17.433Z,98789.75
2022-08-09T16:14:44.676Z,98776.78
2022-08-09T16:17:16.966Z,98775.97
2022-08-09T16:19:49.447Z,98776.56
2022-08-09T16:22:32.878Z,98777.66
2022-08-09T16:25:01.490Z,98777.13
2022-08-09T16:27:30.010Z,98773.09
2022-08-09T16:30:01.141Z,98777.69
2022-08-09T16:32:35.190Z,98783.13
2022-08-09T16:35:05.558Z,98781.47
2022-08-09T16:37:54.993Z,98780.41
2022-08-09T16:40:20.651Z,98781.47
2022-08-09T16:43:06.624Z,98784.19
2022-08-09T16:45:32.943Z,98780.97
2022-08-09T16:48:43.171Z,98780.97
2022-08-09T16:50:58.815Z,98782.06
2022-08-09T16:53:32.251Z,98779.34
2022-08-09T16:56:03.636Z,98769.88
2022-08-09T16:58:35.908Z,98779.94
2022-08-09T17:01:03.988Z,98778.31
2022-08-09T17:03:30.412Z,98780.22
2022-08-09T17:06:07.474Z,98783.19
2022-08-09T17:08:43.134Z,98783.50
2022-08-09T17:11:24.509Z,98781.91
2022-08-09T17:14:01.331Z,98788.38
2022-08-09T17:16:29.244Z,98789.50
2022-08-09T17:18:58.360Z,98789.78
2022-08-09T17:21:29.084Z,98788.16
2022-08-09T17:24:28.480Z,98788.16
2022-08-09T17:26:42.299Z,98789.56
2022-08-09T17:29:20.735Z,98796.88
2022-08-09T17:31:49.167Z,98792.84
2022-08-09T17:34:38.054Z,98800.16
2022-08-09T17:37:02.730Z,98809.66
2022-08-09T17:39:53.066Z,98801.81
2022-08-09T17:42:51.268Z,98800.22
2022-08-09T17:45:06.343Z,98810.53
2022-08-09T17:47:49.311Z,98810.00
2022-08-09T17:50:25.060Z,98816.78
2022-08-09T17:53:19.673Z,98817.91
2022-08-09T17:55:51.941Z,98820.91
2022-08-09T17:58:24.282Z,98819.56
2022-08-09T18:00:56.693Z,98820.94
2022-08-09T18:03:24.984Z,98823.66
2022-08-09T18:05:53.234Z,98827.75
2022-08-09T18:08:22.171Z,98830.75
2022-08-09T18:11:02.107Z,98824.00
2022-08-09T18:13:43.703Z,98825.06
2022-08-09T18:16:16.369Z,98828.38
2022-08-09T18:18:49.326Z,98830.53
2022-08-09T18:21:23.776Z,98836.25
2022-08-09T18:24:12.275Z,98834.13
2022-08-09T18:26:45.944Z,98841.69
2022-08-09T18:30:38.672Z,98843.03
2022-08-09T18:32:18.989Z,98837.09
2022-08-09T18:35:03.797Z,98850.41
2022-08-09T18:37:47.703Z,98851.50
2022-08-09T18:40:16.215Z,98850.16
2022-08-09T18:42:45.323Z,98849.66
2022-08-09T18:46:44.530Z,98852.91
2022-08-09T18:47:58.518Z,98864.03
2022-08-09T18:50:25.126Z,98866.47
2022-08-09T18:52:59.947Z,98873.28
2022-08-09T18:55:45.699Z,98872.75
2022-08-09T18:58:12.807Z,98877.91
2022-08-09T19:00:59.571Z,98879.56
2022-08-09T19:03:26.944Z,98875.53
2022-08-09T19:06:03.466Z,98883.13
2022-08-09T19:08:30.640Z,98896.13
2022-08-09T19:10:57.228Z,98895.88
2022-08-09T19:13:49.629Z,98892.91
2022-08-09T19:16:10.194Z,98888.31
2022-08-09T19:18:43.670Z,98887.28
2022-08-09T19:21:10.941Z,98892.44
2022-08-09T19:24:37.317Z,98898.63
2022-08-09T19:26:31.510Z,98897.88
2022-08-09T19:29:01.576Z,98897.31
2022-08-09T19:31:28.661Z,98903.56
2022-08-09T19:33:57.109Z,98889.75
2022-08-09T19:36:31.000Z,98893.03
2022-08-09T19:38:59.059Z,98891.94
2022-08-09T19:41:33.190Z,98893.63
2022-08-09T19:44:03.253Z,98899.84
2022-08-09T19:46:35.196Z,98894.97
2022-08-09T19:50:05.211Z,98893.91
2022-08-09T19:51:55.349Z,98894.47
2022-08-09T19:54:22.655Z,98891.50
2022-08-09T19:56:52.398Z,98895.81
2022-08-09T19:59:58.386Z,98886.38
2022-08-09T20:02:18.103Z,98888.81
2022-08-09T20:04:55.023Z,98893.13
2022-08-09T20:07:22.599Z,98887.44
2022-08-09T20:09:49.332Z,98887.19
2022-08-09T20:12:27.143Z,98889.63
2022-08-09T20:14:58.748Z,98892.06
2022-08-09T20:17:26.233Z,98892.59
2022-08-09T20:19:57.306Z,98891.53
2022-08-09T20:22:24.206Z,98888.56
2022-08-09T20:24:58.639Z,98895.56
2022-08-09T20:27:29.336Z,98893.44
2022-08-09T20:29:56.766Z,98893.97
2022-08-09T20:32:33.104Z,98891.28
2022-08-09T20:35:01.801Z,98893.72
2022-08-09T20:37:37.870Z,98889.94
2022-08-09T20:40:19.001Z,98893.19
2022-08-09T20:42:59.319Z,98893.72
2022-08-09T20:45:57.365Z,98893.44
2022-08-09T20:48:25.416Z,98898.59
2022-08-09T20:50:57.957Z,98896.41
2022-08-09T20:53:37.055Z,98897.19
2022-08-09T20:56:05.072Z,98891.50
2022-08-09T20:58:32.252Z,98891.25
2022-08-09T21:01:14.368Z,98888.25
2022-08-09T21:05:48.236Z,98887.16
2022-08-09T21:06:35.925Z,98888.81
2022-08-09T21:09:02.701Z,98893.94
2022-08-09T21:14:17.906Z,98894.16
2022-08-09T21:16:45.765Z,98891.19
2022-08-09T21:20:17.071Z,98891.19
2022-08-09T21:22:02.805Z,98890.91
2022-08-09T21:24:33.556Z,98882.53
2022-08-09T21:27:00.229Z,98891.16
2022-08-09T21:29:49.357Z,98889.00
2022-08-09T21:32:18.717Z,98891.44
2022-08-09T21:34:49.294Z,98891.94
2022-08-09T21:37:18.507Z,98890.59
2022-08-09T21:39:49.705Z,98887.59
2022-08-09T21:42:18.012Z,98881.09
2022-08-09T21:44:55.901Z,98881.63
2022-08-09T21:47:23.529Z,98881.34
2022-08-09T21:49:50.908Z,98890.75
2022-08-09T21:52:20.295Z,98882.38
2022-08-09T21:54:49.473Z,98880.78
2022-08-09T21:57:37.847Z,98878.63
2022-08-09T22:00:05.554Z,98874.00
2022-08-09T22:02:36.629Z,98879.91
2022-08-09T22:05:16.870Z,98883.41
2022-08-09T22:07:51.882Z,98878.25
2022-08-09T22:10:23.305Z,98877.16
2022-08-09T22:12:50.494Z,98874.97
2022-08-09T22:15:18.394Z,98881.16
2022-08-09T22:17:48.140Z,98885.72
2022-08-09T22:20:17.105Z,98898.63
2022-08-09T22:22:48.789Z,98884.59
2022-08-09T22:26:07.517Z,98887.22
2022-08-09T22:28:01.434Z,98895.28
2022-08-09T22:30:33.944Z,98894.69
2022-08-09T22:33:00.573Z,98894.41
2022-08-09T22:36:01.220Z,98907.03
2022-08-09T22:38:14.749Z,98909.69
2022-08-09T22:43:16.797Z,98908.53
2022-08-09T22:48:18.327Z,98904.75
2022-08-09T22:48:39.914Z,98906.31
2022-08-09T22:51:17.861Z,98898.47
2022-08-09T22:54:02.803Z,98900.03
2022-08-09T22:56:34.404Z,98910.50
2022-08-09T22:59:01.187Z,98909.38
2022-08-09T23:01:33.074Z,98918.25
2022-08-09T23:04:04.517Z,98911.16
2022-08-09T23:06:35.998Z,98909.78
2022-08-09T23:09:02.607Z,98916.75
2022-08-09T23:11:29.260Z,98917.25
2022-08-09T23:13:55.691Z,98918.81
2022-08-09T23:16:22.757Z,98918.53
2022-08-09T23:18:49.238Z,98918.72
2022-08-09T23:21:25.108Z,98916.00
2022-08-09T23:24:05.935Z,98915.94
2022-08-09T23:26:32.994Z,98920.19
2022-08-09T23:29:00.716Z,98916.94
2022-08-09T23:31:27.843Z,98906.13
2022-08-09T23:33:54.159Z,98910.38
2022-08-09T23:36:22.033Z,98911.97
2022-08-09T23:38:49.479Z,98904.63
2022-08-09T23:41:27.496Z,98909.13
2022-08-09T23:43:55.683Z,98916.06
2022-08-09T23:46:22.026Z,98916.25
2022-08-09T23:48:49.523Z,98915.94
2022-08-09T23:51:16.189Z,98916.44
2022-08-09T23:53:43.946Z,98923.94
2022-08-09T23:56:10.370Z,98918.00
2022-08-09T23:58:36.654Z,98923.88
